createdAt,value
2018-03-24T00:00:38.140Z,0
2018-03-24T00:01:47.538Z,0
2018-03-24T00:02:56.931Z,0
2018-03-24T00:04:05.765Z,0
2018-03-24T00:05:14.598Z,0
2018-03-24T00:06:23.708Z,0
2018-03-24T00:07:32.586Z,0
2018-03-24T00:08:41.696Z,0
2018-03-24T00:09:50.527Z,0
2018-03-24T00:10:59.359Z,0
2018-03-24T00:12:08.470Z,0
2018-03-24T00:13:17.351Z,0
2018-03-24T00:14:26.182Z,0
2018-03-24T00:15:35.290Z,0
2018-03-24T00:16:44.406Z,0
2018-03-24T00:17:53.236Z,0
2018-03-24T00:19:02.345Z,0
2018-03-24T00:20:11.451Z,0
2018-03-24T00:21:20.834Z,0
2018-03-24T00:22:29.666Z,0
2018-03-24T00:23:38.495Z,0
2018-03-24T00:24:47.525Z,0
2018-03-24T00:25:56.354Z,0
2018-03-24T00:27:05.186Z,0
2018-03-24T00:28:14.016Z,0
2018-03-24T00:29:22.848Z,0
2018-03-24T00:30:31.679Z,0
2018-03-24T00:31:40.786Z,0
2018-03-24T00:32:49.620Z,0
2018-03-24T00:33:58.736Z,0
2018-03-24T00:35:07.566Z,0
2018-03-24T00:36:16.547Z,0
2018-03-24T00:37:25.390Z,0
2018-03-24T00:38:34.208Z,0
2018-03-24T00:39:43.040Z,0
2018-03-24T00:40:51.867Z,0
2018-03-24T00:42:01.081Z,0
2018-03-24T00:43:10.184Z,0
2018-03-24T00:44:19.016Z,0
2018-03-24T00:45:27.849Z,0
2018-03-24T00:46:36.680Z,0
2018-03-24T00:47:45.940Z,0
2018-03-24T00:48:54.773Z,0
2018-03-24T00:50:03.605Z,0
2018-03-24T00:51:12.437Z,0
2018-03-24T00:52:21.541Z,0
2018-03-24T00:53:30.476Z,0
2018-03-24T00:54:39.595Z,0
2018-03-24T00:55:48.427Z,0
2018-03-24T00:56:57.258Z,0
2018-03-24T00:58:06.087Z,0
2018-03-24T00:59:15.078Z,0
2018-03-24T01:00:23.856Z,0
2018-03-24T01:01:32.964Z,0
2018-03-24T01:02:41.794Z,0
2018-03-24T01:03:50.625Z,0
2018-03-24T01:04:59.834Z,0
2018-03-24T01:06:08.668Z,0
2018-03-24T01:07:17.500Z,0
2018-03-24T01:08:26.331Z,0
2018-03-24T01:09:35.163Z,0
2018-03-24T01:10:44.097Z,0
2018-03-24T01:11:52.934Z,0
2018-03-24T01:13:01.764Z,0
2018-03-24T01:14:10.594Z,0
2018-03-24T01:15:19.738Z,0
2018-03-24T01:16:28.680Z,0
2018-03-24T01:17:37.790Z,0
2018-03-24T01:18:46.617Z,0
2018-03-24T01:19:55.452Z,0
2018-03-24T01:21:04.565Z,0
2018-03-24T01:22:13.969Z,0
2018-03-24T01:23:22.801Z,0
2018-03-24T01:24:31.634Z,0
2018-03-24T01:25:40.466Z,0
2018-03-24T01:26:49.296Z,0
2018-03-24T01:27:58.558Z,0
2018-03-24T01:29:07.388Z,0
2018-03-24T01:30:16.226Z,0
2018-03-24T01:31:25.625Z,0
2018-03-24T01:32:34.732Z,0
2018-03-24T01:33:43.562Z,0
2018-03-24T01:34:52.949Z,0
2018-03-24T01:36:02.060Z,0
2018-03-24T01:37:10.892Z,0
2018-03-24T01:38:19.724Z,0
2018-03-24T01:39:28.606Z,0
2018-03-24T01:40:37.440Z,0
2018-03-24T01:41:46.273Z,0
2018-03-24T01:42:55.106Z,0
2018-03-24T01:44:03.938Z,0
2018-03-24T01:45:13.106Z,0
2018-03-24T01:46:22.495Z,0
2018-03-24T01:47:31.326Z,0
2018-03-24T01:48:40.158Z,0
2018-03-24T01:49:48.994Z,0
2018-03-24T01:50:57.879Z,0
2018-03-24T01:52:06.659Z,0
2018-03-24T01:53:15.490Z,0
2018-03-24T01:54:24.318Z,0
2018-03-24T01:55:33.154Z,0
2018-03-24T01:56:42.558Z,0
2018-03-24T01:57:51.390Z,0
2018-03-24T01:59:00.218Z,0
2018-03-24T02:00:09.047Z,0
2018-03-24T02:01:17.884Z,0
2018-03-24T02:02:26.866Z,0
2018-03-24T02:03:35.693Z,0
2018-03-24T02:04:44.526Z,0
2018-03-24T02:05:53.631Z,0
2018-03-24T02:07:02.465Z,0
2018-03-24T02:08:11.396Z,0
2018-03-24T02:09:20.226Z,0
2018-03-24T02:10:29.056Z,0
2018-03-24T02:11:38.087Z,0
2018-03-24T02:12:46.920Z,0
2018-03-24T02:13:55.805Z,0
2018-03-24T02:15:04.641Z,0
2018-03-24T02:16:13.473Z,0
2018-03-24T02:17:22.314Z,0
2018-03-24T02:18:31.144Z,0
2018-03-24T02:19:40.023Z,0
2018-03-24T02:20:48.856Z,0
2018-03-24T02:21:57.686Z,0
2018-03-24T02:23:06.515Z,0
2018-03-24T02:24:15.345Z,0
2018-03-24T02:25:24.327Z,0
2018-03-24T02:26:33.163Z,0
2018-03-24T02:27:41.994Z,0
2018-03-24T02:28:50.830Z,0
2018-03-24T02:29:59.659Z,0
2018-03-24T02:31:08.490Z,0
2018-03-24T02:32:17.599Z,0
2018-03-24T02:33:26.717Z,0
2018-03-24T02:34:35.552Z,0
2018-03-24T02:35:44.382Z,0
2018-03-24T02:36:53.267Z,0
2018-03-24T02:38:02.381Z,0
2018-03-24T02:39:11.485Z,0
2018-03-24T02:40:20.317Z,0
2018-03-24T02:41:29.150Z,0
2018-03-24T02:42:38.082Z,0
2018-03-24T02:43:46.918Z,0
2018-03-24T02:44:55.753Z,0
2018-03-24T02:46:04.583Z,0
2018-03-24T02:47:13.414Z,0
2018-03-24T02:48:22.545Z,0
2018-03-24T02:49:31.379Z,0
2018-03-24T02:50:40.496Z,0
2018-03-24T02:51:49.331Z,0
2018-03-24T02:52:58.170Z,0
2018-03-24T02:54:07.093Z,0
2018-03-24T02:55:15.924Z,0
2018-03-24T02:56:24.752Z,0
2018-03-24T02:57:33.584Z,0
2018-03-24T02:58:42.694Z,0
2018-03-24T02:59:51.627Z,0
2018-03-24T03:01:00.459Z,0
2018-03-24T03:02:09.293Z,0
2018-03-24T03:03:18.133Z,0
2018-03-24T03:04:26.957Z,0
2018-03-24T03:05:36.165Z,0
2018-03-24T03:06:45.277Z,0
2018-03-24T03:07:54.389Z,0
2018-03-24T03:09:03.254Z,0
2018-03-24T03:10:12.053Z,0
2018-03-24T03:11:20.934Z,0
2018-03-24T03:12:29.764Z,0
2018-03-24T03:13:38.596Z,0
2018-03-24T03:14:47.427Z,0
2018-03-24T03:15:56.265Z,0
2018-03-24T03:17:05.246Z,0
2018-03-24T03:18:14.354Z,0
2018-03-24T03:19:23.188Z,0
2018-03-24T03:20:32.018Z,0
2018-03-24T03:21:40.850Z,0
2018-03-24T03:22:49.835Z,0
2018-03-24T03:23:58.667Z,0
2018-03-24T03:25:07.782Z,0
2018-03-24T03:26:16.890Z,0
2018-03-24T03:27:25.720Z,0
2018-03-24T03:28:34.616Z,0
2018-03-24T03:29:43.451Z,0
2018-03-24T03:30:52.286Z,0
2018-03-24T03:32:01.120Z,0
2018-03-24T03:33:10.241Z,0
2018-03-24T03:34:19.172Z,0
2018-03-24T03:35:28.005Z,0
2018-03-24T03:36:36.838Z,0
2018-03-24T03:37:46.004Z,0
2018-03-24T03:38:55.107Z,0
2018-03-24T03:40:04.088Z,0
2018-03-24T03:41:12.921Z,0
2018-03-24T03:42:21.766Z,0
2018-03-24T03:43:30.636Z,0
2018-03-24T03:44:39.470Z,0
2018-03-24T03:45:48.302Z,0
2018-03-24T03:46:57.404Z,0
2018-03-24T03:48:06.233Z,0
2018-03-24T03:49:15.065Z,0
2018-03-24T03:50:24.177Z,0
2018-03-24T03:51:33.257Z,0
2018-03-24T03:52:42.091Z,0
2018-03-24T03:53:50.923Z,0
2018-03-24T03:54:59.753Z,0
2018-03-24T03:56:08.584Z,0
2018-03-24T03:57:17.513Z,0
2018-03-24T03:58:26.619Z,0
2018-03-24T03:59:35.450Z,0
2018-03-24T04:00:44.832Z,0
2018-03-24T04:01:53.660Z,0
2018-03-24T04:03:02.542Z,0
2018-03-24T04:04:11.374Z,0
2018-03-24T04:05:20.205Z,0
2018-03-24T04:06:29.032Z,0
2018-03-24T04:07:37.865Z,0
2018-03-24T04:08:46.969Z,0
2018-03-24T04:09:56.087Z,0
2018-03-24T04:11:04.920Z,0
2018-03-24T04:12:13.751Z,0
2018-03-24T04:13:22.578Z,0
2018-03-24T04:14:31.413Z,0
2018-03-24T04:15:40.245Z,0
2018-03-24T04:16:49.077Z,0
2018-03-24T04:17:57.911Z,0
2018-03-24T04:19:07.022Z,0
2018-03-24T04:20:16.383Z,0
2018-03-24T04:21:25.213Z,0
2018-03-24T04:22:34.041Z,0
2018-03-24T04:23:42.872Z,0
2018-03-24T04:24:51.704Z,0
2018-03-24T04:26:00.534Z,0
2018-03-24T04:27:09.367Z,0
2018-03-24T04:28:18.199Z,0
2018-03-24T04:29:27.027Z,0
2018-03-24T04:30:35.856Z,0
2018-03-24T04:31:44.693Z,0
2018-03-24T04:32:53.521Z,0
2018-03-24T04:34:02.354Z,0
2018-03-24T04:35:11.183Z,0
2018-03-24T04:36:20.013Z,0
2018-03-24T04:37:28.958Z,0
2018-03-24T04:38:38.066Z,0
2018-03-24T04:39:46.898Z,0
2018-03-24T04:40:55.726Z,0
2018-03-24T04:42:04.566Z,0
2018-03-24T04:43:13.499Z,0
2018-03-24T04:44:22.333Z,0
2018-03-24T04:45:31.164Z,0
2018-03-24T04:46:39.994Z,0
2018-03-24T04:47:48.824Z,0
2018-03-24T04:48:58.056Z,0
2018-03-24T04:50:06.888Z,0
2018-03-24T04:51:15.719Z,0
2018-03-24T04:52:24.555Z,0
2018-03-24T04:53:33.383Z,0
2018-03-24T04:54:42.212Z,0
2018-03-24T04:55:51.043Z,0
2018-03-24T04:56:59.878Z,0
2018-03-24T04:58:08.709Z,0
2018-03-24T04:59:17.540Z,0
2018-03-24T05:00:26.624Z,0
2018-03-24T05:01:35.457Z,0
2018-03-24T05:02:44.286Z,0
2018-03-24T05:03:53.144Z,0
2018-03-24T05:05:01.944Z,0
2018-03-24T05:06:10.828Z,0
2018-03-24T05:07:19.659Z,0
2018-03-24T05:08:28.770Z,0
2018-03-24T05:09:37.624Z,0
2018-03-24T05:10:46.723Z,0
2018-03-24T05:11:55.559Z,0
2018-03-24T05:13:04.386Z,0
2018-03-24T05:14:13.218Z,0
2018-03-24T05:15:22.326Z,0
2018-03-24T05:16:31.159Z,0
2018-03-24T05:17:40.142Z,0
2018-03-24T05:18:48.971Z,0
2018-03-24T05:19:57.801Z,0
2018-03-24T05:21:06.911Z,5
2018-03-24T05:22:15.741Z,5
2018-03-24T05:23:24.573Z,5
2018-03-24T05:24:33.408Z,5
2018-03-24T05:25:42.521Z,5
2018-03-24T05:26:51.904Z,5
2018-03-24T05:28:00.734Z,5
2018-03-24T05:29:09.564Z,5
2018-03-24T05:30:18.398Z,5
2018-03-24T05:31:27.223Z,10
2018-03-24T05:32:36.056Z,10
2018-03-24T05:33:44.886Z,10
2018-03-24T05:34:54.018Z,10
2018-03-24T05:36:02.848Z,10
2018-03-24T05:37:11.678Z,15
2018-03-24T05:38:20.509Z,15
2018-03-24T05:39:29.340Z,15
2018-03-24T05:40:38.469Z,20
2018-03-24T05:41:47.302Z,20
2018-03-24T05:42:56.413Z,25
2018-03-24T05:44:05.246Z,25
2018-03-24T05:45:14.353Z,25
2018-03-24T05:46:23.185Z,30
2018-03-24T05:47:32.014Z,30
2018-03-24T05:48:40.918Z,30
2018-03-24T05:49:49.675Z,35
2018-03-24T05:50:58.507Z,35
2018-03-24T05:52:07.341Z,35
2018-03-24T05:53:16.169Z,35
2018-03-24T05:54:25.001Z,35
2018-03-24T05:55:33.834Z,35
2018-03-24T05:56:42.663Z,40
2018-03-24T05:57:51.496Z,40
2018-03-24T05:59:00.332Z,40
2018-03-24T06:00:09.162Z,40
2018-03-24T06:01:18.270Z,45
2018-03-24T06:02:27.102Z,45
2018-03-24T06:03:36.235Z,45
2018-03-24T06:04:45.064Z,50
2018-03-24T06:05:53.893Z,50
2018-03-24T06:07:02.726Z,50
2018-03-24T06:08:11.555Z,50
2018-03-24T06:09:20.761Z,55
2018-03-24T06:10:29.590Z,55
2018-03-24T06:11:38.699Z,55
2018-03-24T06:12:47.528Z,60
2018-03-24T06:13:56.365Z,60
2018-03-24T06:15:05.247Z,60
2018-03-24T06:16:14.076Z,60
2018-03-24T06:17:22.906Z,65
2018-03-24T06:18:31.739Z,65
2018-03-24T06:19:40.569Z,70
2018-03-24T06:20:49.651Z,70
2018-03-24T06:21:58.482Z,70
2018-03-24T06:23:07.312Z,70
2018-03-24T06:24:16.143Z,75
2018-03-24T06:25:24.977Z,75
2018-03-24T06:26:33.958Z,80
2018-03-24T06:27:42.791Z,80
2018-03-24T06:28:51.621Z,85
2018-03-24T06:30:00.451Z,85
2018-03-24T06:31:09.557Z,90
2018-03-24T06:32:18.689Z,95
2018-03-24T06:33:27.523Z,100
2018-03-24T06:34:36.630Z,100
2018-03-24T06:35:45.461Z,100
2018-03-24T06:36:54.294Z,100
2018-03-24T06:38:03.625Z,100
2018-03-24T06:39:12.383Z,105
2018-03-24T06:40:21.214Z,105
2018-03-24T06:41:30.047Z,105
2018-03-24T06:42:38.877Z,110
2018-03-24T06:43:47.859Z,115
2018-03-24T06:44:56.735Z,115
2018-03-24T06:46:05.524Z,120
2018-03-24T06:47:14.357Z,120
2018-03-24T06:48:23.189Z,125
2018-03-24T06:49:32.071Z,130
2018-03-24T06:50:40.902Z,130
2018-03-24T06:51:49.732Z,135
2018-03-24T06:52:58.845Z,135
2018-03-24T06:54:07.678Z,135
2018-03-24T06:55:16.812Z,135
2018-03-24T06:56:25.923Z,135
2018-03-24T06:57:34.756Z,135
2018-03-24T06:58:43.589Z,135
2018-03-24T06:59:52.422Z,135
2018-03-24T07:01:01.585Z,140
2018-03-24T07:02:10.418Z,140
2018-03-24T07:03:19.251Z,145
2018-03-24T07:04:28.083Z,145
2018-03-24T07:05:36.916Z,150
2018-03-24T07:06:46.176Z,155
2018-03-24T07:07:55.009Z,160
2018-03-24T07:09:03.894Z,165
2018-03-24T07:10:13.004Z,170
2018-03-24T07:11:22.111Z,175
2018-03-24T07:12:30.940Z,180
2018-03-24T07:13:39.770Z,180
2018-03-24T07:14:48.604Z,180
2018-03-24T07:15:57.436Z,185
2018-03-24T07:17:06.828Z,190
2018-03-24T07:18:15.813Z,195
2018-03-24T07:19:24.646Z,200
2018-03-24T07:20:33.477Z,205
2018-03-24T07:21:42.309Z,210
2018-03-24T07:22:51.141Z,220
2018-03-24T07:24:00.077Z,225
2018-03-24T07:25:08.910Z,225
2018-03-24T07:26:17.743Z,230
2018-03-24T07:27:26.848Z,235
2018-03-24T07:28:35.679Z,235
2018-03-24T07:29:44.613Z,235
2018-03-24T07:30:53.446Z,235
2018-03-24T07:32:02.279Z,235
2018-03-24T07:33:11.111Z,235
2018-03-24T07:34:19.948Z,235
2018-03-24T07:35:28.927Z,235
2018-03-24T07:36:37.761Z,240
2018-03-24T07:37:46.595Z,240
2018-03-24T07:38:55.426Z,240
2018-03-24T07:40:04.261Z,245
2018-03-24T07:41:13.192Z,245
2018-03-24T07:42:22.027Z,250
2018-03-24T07:43:30.856Z,250
2018-03-24T07:44:39.684Z,255
2018-03-24T07:45:48.518Z,260
2018-03-24T07:46:57.452Z,265
2018-03-24T07:48:06.293Z,265
2018-03-24T07:49:15.122Z,270
2018-03-24T07:50:23.956Z,275
2018-03-24T07:51:32.788Z,280
2018-03-24T07:52:41.924Z,290
2018-03-24T07:53:50.758Z,295
2018-03-24T07:54:59.867Z,295
2018-03-24T07:56:09.253Z,290
2018-03-24T07:57:18.088Z,285
2018-03-24T07:58:26.920Z,285
2018-03-24T07:59:35.754Z,285
2018-03-24T08:00:44.588Z,285
2018-03-24T08:01:53.425Z,290
2018-03-24T08:03:02.260Z,300
2018-03-24T08:04:11.146Z,305
2018-03-24T08:05:19.979Z,305
2018-03-24T08:06:28.813Z,310
2018-03-24T08:07:37.647Z,310
2018-03-24T08:08:46.759Z,310
2018-03-24T08:09:55.742Z,310
2018-03-24T08:11:04.850Z,310
2018-03-24T08:12:13.681Z,315
2018-03-24T08:13:22.512Z,320
2018-03-24T08:14:31.621Z,330
2018-03-24T08:15:40.504Z,340
2018-03-24T08:16:49.400Z,350
2018-03-24T08:17:58.170Z,345
2018-03-24T08:19:07.006Z,350
2018-03-24T08:20:15.835Z,355
2018-03-24T08:21:24.668Z,360
2018-03-24T08:22:33.777Z,360
2018-03-24T08:23:42.888Z,360
2018-03-24T08:24:52.001Z,360
2018-03-24T08:26:00.843Z,360
2018-03-24T08:27:09.826Z,365
2018-03-24T08:28:18.660Z,365
2018-03-24T08:29:27.498Z,355
2018-03-24T08:30:36.328Z,350
2018-03-24T08:31:45.170Z,350
2018-03-24T08:32:54.059Z,350
2018-03-24T08:34:03.169Z,350
2018-03-24T08:35:12.005Z,350
2018-03-24T08:36:20.840Z,355
2018-03-24T08:37:30.018Z,360
2018-03-24T08:38:39.136Z,360
2018-03-24T08:39:47.974Z,360
2018-03-24T08:40:57.083Z,365
2018-03-24T08:42:05.917Z,370
2018-03-24T08:43:14.754Z,370
2018-03-24T08:44:23.866Z,375
2018-03-24T08:45:32.702Z,375
2018-03-24T08:46:41.536Z,380
2018-03-24T08:47:50.371Z,385
2018-03-24T08:48:59.202Z,385
2018-03-24T08:50:08.141Z,385
2018-03-24T08:51:16.968Z,385
2018-03-24T08:52:25.801Z,390
2018-03-24T08:53:34.929Z,395
2018-03-24T08:54:43.763Z,395
2018-03-24T08:55:52.650Z,395
2018-03-24T08:57:01.480Z,390
2018-03-24T08:58:10.315Z,395
2018-03-24T08:59:19.159Z,400
2018-03-24T09:00:27.996Z,400
2018-03-24T09:01:36.982Z,400
2018-03-24T09:02:45.824Z,410
2018-03-24T09:03:54.655Z,425
2018-03-24T09:05:03.490Z,425
2018-03-24T09:06:12.325Z,435
2018-03-24T09:07:21.838Z,435
2018-03-24T09:08:30.672Z,445
2018-03-24T09:09:39.516Z,445
2018-03-24T09:10:48.343Z,450
2018-03-24T09:11:57.180Z,450
2018-03-24T09:13:06.417Z,450
2018-03-24T09:14:15.251Z,450
2018-03-24T09:15:24.086Z,440
2018-03-24T09:16:32.922Z,435
2018-03-24T09:17:41.762Z,435
2018-03-24T09:18:50.742Z,435
2018-03-24T09:19:59.580Z,435
2018-03-24T09:21:08.705Z,435
2018-03-24T09:22:17.848Z,440
2018-03-24T09:23:26.665Z,440
2018-03-24T09:24:35.602Z,445
2018-03-24T09:25:44.439Z,455
2018-03-24T09:26:53.272Z,465
2018-03-24T09:28:02.158Z,460
2018-03-24T09:29:10.942Z,465
2018-03-24T09:30:20.203Z,465
2018-03-24T09:31:29.038Z,470
2018-03-24T09:32:37.870Z,465
2018-03-24T09:33:46.986Z,460
2018-03-24T09:34:55.847Z,460
2018-03-24T09:36:05.057Z,465
2018-03-24T09:37:13.896Z,475
2018-03-24T09:38:23.007Z,490
2018-03-24T09:39:32.120Z,505
2018-03-24T09:40:40.958Z,520
2018-03-24T09:41:50.216Z,525
2018-03-24T09:42:59.049Z,535
2018-03-24T09:44:07.884Z,540
2018-03-24T09:45:16.717Z,555
2018-03-24T09:46:25.550Z,555
2018-03-24T09:47:34.534Z,565
2018-03-24T09:48:43.369Z,570
2018-03-24T09:49:52.203Z,570
2018-03-24T09:51:01.040Z,575
2018-03-24T09:52:09.875Z,580
2018-03-24T09:53:18.861Z,590
2018-03-24T09:54:27.697Z,600
2018-03-24T09:55:36.533Z,600
2018-03-24T09:56:45.371Z,600
2018-03-24T09:57:54.207Z,600
2018-03-24T09:59:03.366Z,600
2018-03-24T10:00:12.202Z,595
2018-03-24T10:01:21.041Z,585
2018-03-24T10:02:29.874Z,570
2018-03-24T10:03:38.711Z,560
2018-03-24T10:04:47.545Z,555
2018-03-24T10:05:56.381Z,550
2018-03-24T10:07:05.220Z,550
2018-03-24T10:08:14.341Z,545
2018-03-24T10:09:23.172Z,540
2018-03-24T10:10:32.207Z,545
2018-03-24T10:11:41.044Z,545
2018-03-24T10:12:49.880Z,550
2018-03-24T10:13:58.718Z,550
2018-03-24T10:15:07.559Z,540
2018-03-24T10:16:16.593Z,535
2018-03-24T10:17:25.428Z,530
2018-03-24T10:18:34.265Z,530
2018-03-24T10:19:43.101Z,520
2018-03-24T10:20:51.939Z,550
2018-03-24T10:22:00.777Z,565
2018-03-24T10:23:09.611Z,565
2018-03-24T10:24:18.451Z,560
2018-03-24T10:25:27.292Z,560
2018-03-24T10:26:36.125Z,570
2018-03-24T10:27:45.060Z,555
2018-03-24T10:28:53.914Z,555
2018-03-24T10:30:02.732Z,555
2018-03-24T10:31:11.569Z,560
2018-03-24T10:32:20.407Z,550
2018-03-24T10:33:29.395Z,525
2018-03-24T10:34:38.234Z,505
2018-03-24T10:35:47.071Z,485
2018-03-24T10:36:55.907Z,480
2018-03-24T10:38:04.749Z,475
2018-03-24T10:39:13.645Z,470
2018-03-24T10:40:22.472Z,465
2018-03-24T10:41:31.677Z,470
2018-03-24T10:42:40.473Z,465
2018-03-24T10:43:49.324Z,470
2018-03-24T10:44:58.535Z,460
2018-03-24T10:46:07.371Z,455
2018-03-24T10:47:16.207Z,470
2018-03-24T10:48:25.042Z,475
2018-03-24T10:49:33.879Z,470
2018-03-24T10:50:43.146Z,475
2018-03-24T10:51:51.986Z,475
2018-03-24T10:53:00.819Z,480
2018-03-24T10:54:09.655Z,490
2018-03-24T10:55:18.491Z,500
2018-03-24T10:56:28.182Z,490
2018-03-24T10:57:37.017Z,490
2018-03-24T10:58:45.854Z,505
2018-03-24T10:59:54.693Z,490
2018-03-24T11:01:03.529Z,485
2018-03-24T11:02:12.466Z,540
2018-03-24T11:03:21.300Z,590
2018-03-24T11:04:30.136Z,585
2018-03-24T11:05:38.974Z,565
2018-03-24T11:06:48.089Z,545
2018-03-24T11:07:57.174Z,560
2018-03-24T11:09:06.015Z,555
2018-03-24T11:10:14.855Z,535
2018-03-24T11:11:23.688Z,535
2018-03-24T11:12:32.817Z,525
2018-03-24T11:13:41.656Z,530
2018-03-24T11:14:50.491Z,525
2018-03-24T11:15:59.327Z,520
2018-03-24T11:17:08.165Z,510
2018-03-24T11:18:16.999Z,505
2018-03-24T11:19:25.887Z,500
2018-03-24T11:20:34.730Z,475
2018-03-24T11:21:43.564Z,495
2018-03-24T11:22:52.678Z,525
2018-03-24T11:24:01.515Z,540
2018-03-24T11:25:10.351Z,555
2018-03-24T11:26:19.187Z,565
2018-03-24T11:27:28.023Z,565
2018-03-24T11:28:36.860Z,560
2018-03-24T11:29:45.700Z,550
2018-03-24T11:30:54.588Z,540
2018-03-24T11:32:03.704Z,535
2018-03-24T11:33:12.540Z,530
2018-03-24T11:34:21.656Z,510
2018-03-24T11:35:30.491Z,495
2018-03-24T11:36:39.541Z,480
2018-03-24T11:37:48.367Z,470
2018-03-24T11:38:57.514Z,465
2018-03-24T11:40:06.349Z,455
2018-03-24T11:41:15.188Z,445
2018-03-24T11:42:24.130Z,440
2018-03-24T11:43:32.971Z,435
2018-03-24T11:44:41.806Z,425
2018-03-24T11:45:50.650Z,410
2018-03-24T11:46:59.482Z,400
2018-03-24T11:48:08.473Z,380
2018-03-24T11:49:17.304Z,365
2018-03-24T11:50:26.141Z,355
2018-03-24T11:51:34.981Z,330
2018-03-24T11:52:43.819Z,320
2018-03-24T11:53:52.980Z,310
2018-03-24T11:55:01.819Z,300
2018-03-24T11:56:10.678Z,300
2018-03-24T11:57:19.770Z,295
2018-03-24T11:58:28.616Z,290
2018-03-24T11:59:37.448Z,290
2018-03-24T12:00:46.284Z,290
2018-03-24T12:01:55.125Z,285
2018-03-24T12:03:03.957Z,285
2018-03-24T12:04:12.797Z,285
2018-03-24T12:05:22.011Z,285
2018-03-24T12:06:30.847Z,285
2018-03-24T12:07:39.685Z,295
2018-03-24T12:08:48.524Z,300
2018-03-24T12:09:57.358Z,300
2018-03-24T12:11:06.571Z,300
2018-03-24T12:12:15.408Z,300
2018-03-24T12:13:24.242Z,290
2018-03-24T12:14:33.082Z,285
2018-03-24T12:15:41.916Z,285
2018-03-24T12:16:50.863Z,285
2018-03-24T12:17:59.701Z,285
2018-03-24T12:19:08.817Z,290
2018-03-24T12:20:17.930Z,285
2018-03-24T12:21:26.763Z,280
2018-03-24T12:22:35.698Z,275
2018-03-24T12:23:44.535Z,275
2018-03-24T12:24:53.369Z,270
2018-03-24T12:26:02.211Z,275
2018-03-24T12:27:11.046Z,275
2018-03-24T12:28:20.156Z,275
2018-03-24T12:29:28.992Z,270
2018-03-24T12:30:37.831Z,270
2018-03-24T12:31:46.668Z,265
2018-03-24T12:32:55.509Z,270
2018-03-24T12:34:04.491Z,275
2018-03-24T12:35:13.325Z,290
2018-03-24T12:36:22.438Z,295
2018-03-24T12:37:31.278Z,305
2018-03-24T12:38:40.117Z,305
2018-03-24T12:39:49.200Z,305
2018-03-24T12:40:58.036Z,305
2018-03-24T12:42:06.870Z,305
2018-03-24T12:43:15.704Z,305
2018-03-24T12:44:24.537Z,305
2018-03-24T12:45:33.774Z,310
2018-03-24T12:46:42.609Z,310
2018-03-24T12:47:51.445Z,315
2018-03-24T12:49:00.283Z,320
2018-03-24T12:50:09.121Z,330
2018-03-24T12:51:18.067Z,340
2018-03-24T12:52:26.894Z,350
2018-03-24T12:53:35.729Z,355
2018-03-24T12:54:44.839Z,365
2018-03-24T12:55:53.676Z,375
2018-03-24T12:57:02.763Z,380
2018-03-24T12:58:11.598Z,380
2018-03-24T12:59:20.439Z,390
2018-03-24T13:00:29.595Z,395
2018-03-24T13:01:38.662Z,400
2018-03-24T13:02:47.548Z,400
2018-03-24T13:03:56.384Z,405
2018-03-24T13:05:05.220Z,405
2018-03-24T13:06:14.056Z,390
2018-03-24T13:07:23.170Z,380
2018-03-24T13:08:32.009Z,365
2018-03-24T13:09:40.851Z,350
2018-03-24T13:10:49.689Z,335
2018-03-24T13:11:58.524Z,325
2018-03-24T13:13:07.637Z,320
2018-03-24T13:14:16.858Z,310
2018-03-24T13:15:25.694Z,295
2018-03-24T13:16:34.530Z,290
2018-03-24T13:17:43.372Z,275
2018-03-24T13:18:52.495Z,265
2018-03-24T13:20:01.429Z,255
2018-03-24T13:21:10.215Z,245
2018-03-24T13:22:19.052Z,235
2018-03-24T13:23:27.894Z,230
2018-03-24T13:24:37.009Z,225
2018-03-24T13:25:45.897Z,225
2018-03-24T13:26:54.735Z,225
2018-03-24T13:28:03.571Z,225
2018-03-24T13:29:12.410Z,225
2018-03-24T13:30:21.801Z,225
2018-03-24T13:31:31.118Z,230
2018-03-24T13:32:39.948Z,230
2018-03-24T13:33:48.783Z,235
2018-03-24T13:34:57.620Z,230
2018-03-24T13:36:06.457Z,220
2018-03-24T13:37:15.394Z,215
2018-03-24T13:38:24.229Z,215
2018-03-24T13:39:33.066Z,215
2018-03-24T13:40:41.908Z,220
2018-03-24T13:41:51.023Z,225
2018-03-24T13:43:00.138Z,235
2018-03-24T13:44:09.249Z,240
2018-03-24T13:45:18.085Z,240
2018-03-24T13:46:26.921Z,240
2018-03-24T13:47:35.757Z,235
2018-03-24T13:48:44.594Z,235
2018-03-24T13:49:53.429Z,230
2018-03-24T13:51:02.265Z,230
2018-03-24T13:52:11.108Z,230
2018-03-24T13:53:19.945Z,230
2018-03-24T13:54:29.376Z,220
2018-03-24T13:55:38.485Z,215
2018-03-24T13:56:47.323Z,210
2018-03-24T13:57:56.436Z,210
2018-03-24T13:59:05.269Z,215
2018-03-24T14:00:14.479Z,215
2018-03-24T14:01:23.312Z,220
2018-03-24T14:02:32.147Z,220
2018-03-24T14:03:40.993Z,220
2018-03-24T14:04:49.819Z,220
2018-03-24T14:05:58.706Z,220
2018-03-24T14:07:07.543Z,220
2018-03-24T14:08:16.380Z,210
2018-03-24T14:09:25.214Z,200
2018-03-24T14:10:34.053Z,190
2018-03-24T14:11:42.990Z,180
2018-03-24T14:12:51.828Z,175
2018-03-24T14:14:00.671Z,180
2018-03-24T14:15:09.500Z,185
2018-03-24T14:16:18.336Z,195
2018-03-24T14:17:27.223Z,210
2018-03-24T14:18:36.059Z,215
2018-03-24T14:19:44.896Z,215
2018-03-24T14:20:53.735Z,215
2018-03-24T14:22:02.842Z,215
2018-03-24T14:23:12.079Z,215
2018-03-24T14:24:20.914Z,215
2018-03-24T14:25:29.749Z,225
2018-03-24T14:26:38.586Z,230
2018-03-24T14:27:47.421Z,230
2018-03-24T14:28:56.556Z,230
2018-03-24T14:30:05.396Z,225
2018-03-24T14:31:14.250Z,225
2018-03-24T14:32:23.070Z,225
2018-03-24T14:33:32.181Z,225
2018-03-24T14:34:41.168Z,215
2018-03-24T14:35:50.001Z,215
2018-03-24T14:36:58.837Z,210
2018-03-24T14:38:07.674Z,205
2018-03-24T14:39:16.516Z,210
2018-03-24T14:40:25.357Z,210
2018-03-24T14:41:34.194Z,220
2018-03-24T14:42:43.030Z,225
2018-03-24T14:43:51.868Z,235
2018-03-24T14:45:00.704Z,225
2018-03-24T14:46:09.534Z,220
2018-03-24T14:47:18.371Z,215
2018-03-24T14:48:27.208Z,210
2018-03-24T14:49:36.043Z,205
2018-03-24T14:50:44.881Z,200
2018-03-24T14:51:54.091Z,200
2018-03-24T14:53:02.928Z,195
2018-03-24T14:54:12.046Z,195
2018-03-24T14:55:20.878Z,195
2018-03-24T14:56:29.715Z,195
2018-03-24T14:57:38.549Z,190
2018-03-24T14:58:47.384Z,190
2018-03-24T14:59:56.219Z,185
2018-03-24T15:01:05.062Z,185
2018-03-24T15:02:14.170Z,185
2018-03-24T15:03:23.005Z,180
2018-03-24T15:04:31.841Z,180
2018-03-24T15:05:40.679Z,170
2018-03-24T15:06:49.515Z,170
2018-03-24T15:07:58.351Z,170
2018-03-24T15:09:07.566Z,175
2018-03-24T15:10:16.681Z,175
2018-03-24T15:11:25.524Z,175
2018-03-24T15:12:34.405Z,175
2018-03-24T15:13:43.248Z,175
2018-03-24T15:14:52.414Z,180
2018-03-24T15:16:01.249Z,180
2018-03-24T15:17:10.093Z,180
2018-03-24T15:18:18.923Z,170
2018-03-24T15:19:27.757Z,170
2018-03-24T15:20:36.692Z,165
2018-03-24T15:21:45.526Z,165
2018-03-24T15:22:54.358Z,160
2018-03-24T15:24:03.471Z,155
2018-03-24T15:25:12.307Z,155
2018-03-24T15:26:21.443Z,155
2018-03-24T15:27:30.278Z,150
2018-03-24T15:28:39.117Z,150
2018-03-24T15:29:47.953Z,150
2018-03-24T15:30:56.788Z,150
2018-03-24T15:32:05.773Z,155
2018-03-24T15:33:14.607Z,150
2018-03-24T15:34:23.443Z,150
2018-03-24T15:35:32.285Z,155
2018-03-24T15:36:41.395Z,155
2018-03-24T15:37:50.668Z,160
2018-03-24T15:38:59.788Z,165
2018-03-24T15:40:08.622Z,170
2018-03-24T15:41:17.461Z,175
2018-03-24T15:42:26.294Z,175
2018-03-24T15:43:35.130Z,175
2018-03-24T15:44:43.978Z,170
2018-03-24T15:45:52.815Z,170
2018-03-24T15:47:01.645Z,165
2018-03-24T15:48:10.484Z,160
2018-03-24T15:49:19.368Z,155
2018-03-24T15:50:28.204Z,150
2018-03-24T15:51:37.318Z,145
2018-03-24T15:52:46.153Z,150
2018-03-24T15:53:54.988Z,145
2018-03-24T15:55:04.124Z,145
2018-03-24T15:56:12.958Z,140
2018-03-24T15:57:21.796Z,135
2018-03-24T15:58:31.184Z,130
2018-03-24T15:59:40.017Z,125
2018-03-24T16:00:48.953Z,125
2018-03-24T16:01:57.808Z,120
2018-03-24T16:03:06.627Z,115
2018-03-24T16:04:15.759Z,110
2018-03-24T16:05:24.595Z,105
2018-03-24T16:06:33.479Z,100
2018-03-24T16:07:42.314Z,95
2018-03-24T16:08:51.149Z,95
2018-03-24T16:10:00.272Z,95
2018-03-24T16:11:09.098Z,90
2018-03-24T16:12:17.987Z,90
2018-03-24T16:13:26.821Z,90
2018-03-24T16:14:35.934Z,90